Time;durP1;ratioP1;P1;durP2;ratioP2;P2;SDS_P1;SDS_P2;PMS_P1;PMS_P2;Temp;Humidity;BMP_temperature;BMP_pressure;BME280_temperature;BME280_humidity;BME280_pressure;Samples;Min_cycle;Max_cycle;Signal;HPM_P1;HPM_P2
2023/05/13 00:02:22;;;;;;;9.30;7.07;;;;;;;-145.18;100.00;46621.31;4915885;29;20116;-72
2023/05/13 00:04:48;;;;;;;9.77;7.23;;;;;;;-145.18;100.00;46623.28;4912492;29;20055;-72
2023/05/13 00:07:13;;;;;;;11.30;7.27;;;;;;;-145.18;100.00;46623.28;4936477;29;20024;-72
2023/05/13 00:09:38;;;;;;;9.80;7.20;;;;;;;-145.18;100.00;46625.22;4948584;29;20557;-72
2023/05/13 00:12:04;;;;;;;11.13;7.97;;;;;;;-145.18;100.00;46621.31;4954174;29;20042;-72
2023/05/13 00:14:30;;;;;;;10.03;7.17;;;;;;;-145.18;100.00;46625.22;4954983;29;20039;-72
2023/05/13 00:16:57;;;;;;;11.07;7.90;;;;;;;-145.18;100.00;46625.22;4945351;29;20091;-72
2023/05/13 00:19:23;;;;;;;9.97;6.67;;;;;;;-145.18;100.00;46623.28;4938479;29;20444;-72
2023/05/13 00:21:48;;;;;;;12.27;7.03;;;;;;;-145.18;100.00;46623.28;4954348;29;20109;-74
2023/05/13 00:24:13;;;;;;;9.20;7.17;;;;;;;-145.18;100.00;46623.28;4954464;29;20499;-73
2023/05/13 00:26:39;;;;;;;9.20;7.23;;;;;;;-145.18;100.00;46631.09;4954201;29;20039;-72
2023/05/13 00:29:04;;;;;;;10.10;7.03;;;;;;;-145.18;100.00;46623.28;4954446;29;20402;-73
2023/05/13 00:31:29;;;;;;;10.47;7.00;;;;;;;-145.18;100.00;46625.22;4934984;29;20134;-73
2023/05/13 00:33:55;;;;;;;9.10;6.73;;;;;;;-145.18;100.00;46625.22;4935547;29;20028;-73
2023/05/13 00:36:20;;;;;;;12.60;7.13;;;;;;;-145.18;100.00;46625.22;4934152;29;20044;-74
2023/05/13 00:38:46;;;;;;;7.77;6.47;;;;;;;-145.18;100.00;46631.09;4935513;29;20036;-74
2023/05/13 00:41:11;;;;;;;9.97;6.77;;;;;;;-145.18;100.00;46629.13;4934866;29;20517;-74
2023/05/13 00:43:37;;;;;;;11.03;6.03;;;;;;;-145.18;100.00;46629.13;4935461;29;20039;-74
2023/05/13 00:46:03;;;;;;;8.40;6.07;;;;;;;-145.18;100.00;46635.00;4934919;29;20543;-73
2023/05/13 00:48:28;;;;;;;8.73;6.27;;;;;;;-145.18;100.00;46635.00;4934587;29;20114;-73
2023/05/13 00:50:54;;;;;;;7.87;5.97;;;;;;;-145.18;100.00;46635.00;4935237;29;20169;-73
2023/05/13 00:53:20;;;;;;;8.80;6.00;;;;;;;-145.18;100.00;46640.88;4936217;29;20058;-74
2023/05/13 00:55:45;;;;;;;6.90;5.30;;;;;;;-145.18;100.00;46638.91;4953750;29;20051;-74
2023/05/13 00:58:11;;;;;;;8.83;5.93;;;;;;;-145.18;100.00;46615.47;4952573;29;20039;-73
2023/05/13 01:00:46;;;;;;;7.17;5.23;;;;;;;-145.18;100.00;46648.69;4934897;29;20046;-73
2023/05/13 01:03:17;;;;;;;9.17;6.00;;;;;;;-145.18;100.00;46607.66;4933873;29;20409;-73
2023/05/13 01:05:55;;;;;;;9.50;5.20;;;;;;;-145.18;100.00;46615.47;4922560;29;20429;-74
2023/05/13 01:08:39;;;;;;;7.53;5.83;;;;;;;-145.18;100.00;46617.41;4934139;29;20032;-74
2023/05/13 01:11:20;;;;;;;7.67;5.87;;;;;;;-145.18;100.00;46619.38;4916923;29;20043;-74
2023/05/13 01:13:48;;;;;;;7.80;5.50;;;;;;;-145.18;100.00;46615.47;4915820;29;20541;-73
2023/05/13 01:16:16;;;;;;;7.37;5.27;;;;;;;-145.18;100.00;46615.47;4908680;29;20064;-73
2023/05/13 01:19:24;;;;;;;10.73;5.20;;;;;;;-145.18;100.00;46601.78;4934199;29;20087;-73
2023/05/13 01:21:53;;;;;;;8.43;5.50;;;;;;;-145.18;100.00;46629.13;4934501;29;20042;-72
2023/05/13 01:24:18;;;;;;;8.67;6.20;;;;;;;-145.18;100.00;46633.06;4934178;29;20032;-73
2023/05/13 01:26:44;;;;;;;7.47;5.33;;;;;;;-145.18;100.00;46627.19;4933506;29;20509;-74
2023/05/13 01:29:10;;;;;;;9.37;6.17;;;;;;;-145.18;100.00;46631.09;4915176;29;20406;-74
2023/05/13 01:31:36;;;;;;;9.67;5.67;;;;;;;-145.18;100.00;46629.13;4915233;29;20047;-74
2023/05/13 01:34:02;;;;;;;9.10;5.50;;;;;;;-145.18;100.00;46636.94;4915457;29;20478;-73
2023/05/13 01:36:28;;;;;;;7.63;5.53;;;;;;;-145.18;100.00;46629.13;4916300;29;20032;-73
2023/05/13 01:38:55;;;;;;;7.00;5.60;;;;;;;-145.18;100.00;46633.06;4933959;29;20043;-73
2023/05/13 01:41:20;;;;;;;12.63;5.93;;;;;;;-145.18;100.00;46638.91;4916017;29;20088;-73
2023/05/13 01:43:46;;;;;;;9.43;6.00;;;;;;;-145.18;100.00;46635.00;4915317;29;20438;-73
2023/05/13 01:46:12;;;;;;;6.60;5.10;;;;;;;-145.18;100.00;46629.13;4914886;29;20486;-73
2023/05/13 01:48:37;;;;;;;8.93;5.10;;;;;;;-145.18;100.00;46627.19;4914054;29;20032;-74
2023/05/13 01:51:03;;;;;;;7.93;5.43;;;;;;;-145.18;100.00;46621.31;4915120;29;20083;-73
2023/05/13 01:53:29;;;;;;;8.00;5.47;;;;;;;-145.18;100.00;46629.13;4932677;29;20196;-73
2023/05/13 01:55:54;;;;;;;8.80;5.37;;;;;;;-145.18;100.00;46640.88;4933992;29;20036;-73
2023/05/13 01:58:20;;;;;;;9.20;5.17;;;;;;;-145.18;100.00;46633.06;4933573;29;20561;-73
2023/05/13 02:03:20;;;;;;;9.23;5.93;;;;;;;-145.18;100.00;46621.31;4230372;23;20460;-75
2023/05/13 02:05:47;;;;;;;8.37;5.30;;;;;;;-145.18;100.00;46623.28;4932395;29;20052;-75
2023/05/13 02:08:12;;;;;;;6.67;5.40;;;;;;;-145.18;100.00;46636.94;4929802;29;20063;-74
2023/05/13 02:10:38;;;;;;;7.73;5.20;;;;;;;-145.18;100.00;46635.00;4933630;29;20063;-74
2023/05/13 02:13:03;;;;;;;8.70;5.87;;;;;;;-145.18;100.00;46640.88;4919340;29;20070;-75
2023/05/13 02:15:28;;;;;;;9.77;5.80;;;;;;;-145.18;100.00;46633.06;4915286;29;20042;-75
2023/05/13 02:17:54;;;;;;;8.00;5.53;;;;;;;-145.18;100.00;46642.81;4933374;29;20028;-75
2023/05/13 02:20:19;;;;;;;8.57;5.80;;;;;;;-145.18;100.00;46633.06;4933132;29;20833;-75
2023/05/13 02:22:45;;;;;;;9.87;5.63;;;;;;;-145.18;100.00;46638.91;4921747;29;20374;-75
2023/05/13 02:25:10;;;;;;;7.80;5.30;;;;;;;-145.18;100.00;46635.00;4914613;29;20096;-75
2023/05/13 02:27:36;;;;;;;8.63;5.70;;;;;;;-145.18;100.00;46648.69;4914296;29;20127;-76
2023/05/13 02:30:01;;;;;;;9.97;5.47;;;;;;;-145.18;100.00;46642.81;4913523;29;20036;-75
2023/05/13 02:32:26;;;;;;;6.50;5.23;;;;;;;-145.18;100.00;46650.63;4922285;29;20039;-75
2023/05/13 02:34:52;;;;;;;7.33;4.87;;;;;;;-145.18;100.00;46656.50;4933307;29;20176;-76
2023/05/13 02:37:17;;;;;;;11.53;5.50;;;;;;;-145.18;100.00;46636.94;4933009;29;20507;-76
2023/05/13 02:39:43;;;;;;;11.53;5.43;;;;;;;-145.18;100.00;46646.72;4933294;29;20391;-75
2023/05/13 02:42:08;;;;;;;7.47;5.30;;;;;;;-145.18;100.00;46633.06;4927516;29;20039;-76
2023/05/13 02:44:34;;;;;;;7.07;4.97;;;;;;;-145.18;100.00;46633.06;4914592;29;20032;-75
2023/05/13 02:46:59;;;;;;;8.03;5.87;;;;;;;-145.18;100.00;46633.06;4913406;29;20039;-75
2023/05/13 02:49:25;;;;;;;8.93;5.83;;;;;;;-145.18;100.00;46615.47;4919054;29;20063;-75
2023/05/13 02:51:50;;;;;;;7.20;5.60;;;;;;;-145.18;100.00;46619.38;4929338;29;20032;-76
2023/05/13 02:54:15;;;;;;;7.57;5.57;;;;;;;-145.18;100.00;46615.47;4910390;29;20036;-75
2023/05/13 02:56:41;;;;;;;7.83;5.57;;;;;;;-145.18;100.00;46654.53;4914198;29;20508;-75
2023/05/13 02:59:06;;;;;;;9.00;5.30;;;;;;;-145.18;100.00;46654.53;4915843;29;20087;-75
2023/05/13 03:01:31;;;;;;;9.63;5.50;;;;;;;-145.18;100.00;46640.88;4936720;29;20046;-75
2023/05/13 03:03:57;;;;;;;7.83;5.93;;;;;;;-145.18;100.00;46642.81;4936387;29;20055;-75
2023/05/13 03:06:22;;;;;;;9.00;5.70;;;;;;;-145.18;100.00;46650.63;4936998;29;20412;-75
2023/05/13 03:08:47;;;;;;;11.10;5.80;;;;;;;-145.18;100.00;46658.44;4918795;29;20036;-75
2023/05/13 03:11:13;;;;;;;8.97;5.90;;;;;;;-145.18;100.00;46658.44;4918132;29;20132;-75
2023/05/13 03:13:38;;;;;;;11.67;5.93;;;;;;;-145.18;100.00;46652.59;4917530;29;20465;-75
2023/05/13 03:16:04;;;;;;;9.90;5.93;;;;;;;-145.18;100.00;46650.63;4917178;29;20043;-75
2023/05/13 03:18:31;;;;;;;8.33;5.73;;;;;;;-145.18;100.00;46635.00;4917521;29;20040;-75
2023/05/13 03:20:57;;;;;;;8.97;6.03;;;;;;;-145.18;100.00;46654.53;4932959;29;20134;-75
2023/05/13 03:23:22;;;;;;;9.90;5.70;;;;;;;-145.18;100.00;46636.94;4936696;29;20112;-75
2023/05/13 03:25:47;;;;;;;8.47;6.40;;;;;;;-145.18;100.00;46635.00;4936532;29;20481;-74
2023/05/13 03:28:13;;;;;;;12.10;6.73;;;;;;;-145.18;100.00;46631.09;4919437;29;20078;-75
2023/05/13 03:30:38;;;;;;;9.60;6.70;;;;;;;-145.18;100.00;46633.06;4922817;29;20048;-75
2023/05/13 03:33:04;;;;;;;11.33;6.93;;;;;;;-145.18;100.00;46629.13;4925366;29;20100;-75
2023/05/13 03:35:29;;;;;;;11.53;6.47;;;;;;;-145.18;100.00;46629.13;4936037;29;20063;-75
2023/05/13 03:37:54;;;;;;;11.10;6.80;;;;;;;-145.18;100.00;46625.22;4935929;29;20043;-76
2023/05/13 03:40:20;;;;;;;11.83;7.20;;;;;;;-145.18;100.00;46623.28;4923467;29;20040;-75
2023/05/13 03:42:45;;;;;;;9.20;7.23;;;;;;;-145.18;100.00;46633.06;4916805;29;20044;-74
2023/05/13 03:45:10;;;;;;;8.87;7.20;;;;;;;-145.18;100.00;46642.81;4917419;29;20043;-74
2023/05/13 03:47:38;;;;;;;11.60;7.47;;;;;;;-145.18;100.00;46660.41;4916958;29;20037;-74
2023/05/13 03:50:04;;;;;;;9.73;7.50;;;;;;;-145.18;100.00;46650.63;4910523;29;20546;-74
2023/05/13 03:52:29;;;;;;;12.00;8.10;;;;;;;-145.18;100.00;46677.97;4935076;29;20122;-74
2023/05/13 03:54:54;;;;;;;10.60;7.50;;;;;;;-145.18;100.00;46689.69;4918689;29;20123;-74
2023/05/13 03:57:20;;;;;;;10.03;7.83;;;;;;;-145.18;100.00;46709.22;4934986;29;20137;-74
2023/05/13 03:59:45;;;;;;;13.30;8.70;;;;;;;-145.18;100.00;46711.19;4928260;29;20048;-75
2023/05/13 04:02:10;;;;;;;12.73;8.57;;;;;;;-145.18;100.00;46711.19;4915943;29;20083;-74
2023/05/13 04:04:36;;;;;;;14.33;9.27;;;;;;;-145.18;100.00;46711.19;4916893;29;20413;-74
2023/05/13 04:07:01;;;;;;;11.97;8.30;;;;;;;-145.18;100.00;46707.28;4916446;29;20067;-74
2023/05/13 04:09:27;;;;;;;11.57;9.13;;;;;;;-145.18;100.00;46709.22;4921469;29;20473;-74
2023/05/13 04:11:52;;;;;;;12.13;9.80;;;;;;;-145.18;100.00;46703.38;4935038;29;20047;-75
2023/05/13 04:14:18;;;;;;;13.93;8.83;;;;;;;-145.18;100.00;46705.31;4933491;29;20036;-74
2023/05/13 04:16:43;;;;;;;16.20;10.20;;;;;;;-145.18;100.00;46703.38;4923941;29;20027;-73
2023/05/13 04:19:08;;;;;;;13.63;9.63;;;;;;;-145.18;100.00;46699.47;4922646;29;20028;-74
2023/05/13 04:21:34;;;;;;;14.63;9.73;;;;;;;-145.18;100.00;46707.28;4925056;29;20040;-74
2023/05/13 04:23:59;;;;;;;19.23;10.63;;;;;;;-145.18;100.00;46697.50;4922622;29;20647;-73
2023/05/13 04:26:25;;;;;;;12.60;10.33;;;;;;;-145.18;100.00;46695.56;4896511;29;20104;-73
2023/05/13 04:28:50;;;;;;;16.97;12.37;;;;;;;-145.18;100.00;46691.66;4915125;29;20043;-74
2023/05/13 04:31:16;;;;;;;17.20;10.87;;;;;;;-145.18;100.00;46693.59;4912402;29;20050;-73
2023/05/13 04:33:41;;;;;;;14.33;10.87;;;;;;;-145.18;100.00;46687.75;4916161;29;20032;-74
2023/05/13 04:36:06;;;;;;;16.00;10.97;;;;;;;-145.18;100.00;46695.56;4915841;29;20047;-74
2023/05/13 04:38:32;;;;;;;15.10;11.13;;;;;;;-145.18;100.00;46699.47;4915834;29;20047;-74
2023/05/13 04:40:57;;;;;;;15.70;11.17;;;;;;;-145.18;100.00;46681.88;4927987;29;20032;-74
2023/05/13 04:43:22;;;;;;;17.43;11.47;;;;;;;-145.18;100.00;46687.75;4915712;29;20028;-73
2023/05/13 04:45:48;;;;;;;15.13;11.13;;;;;;;-145.18;100.00;46691.66;4915834;29;20536;-74
2023/05/13 04:48:14;;;;;;;15.83;11.20;;;;;;;-145.18;100.00;46681.88;4915622;29;20040;-74
2023/05/13 04:50:44;;;;;;;18.00;11.77;;;;;;;-145.18;100.00;46679.94;4927844;29;20044;-74
2023/05/13 04:53:10;;;;;;;16.30;12.17;;;;;;;-145.18;100.00;46681.88;4904162;29;20035;-74
2023/05/13 04:55:35;;;;;;;16.93;12.83;;;;;;;-145.18;100.00;46685.78;4897083;29;20037;-74
2023/05/13 04:58:00;;;;;;;18.97;11.63;;;;;;;-145.18;100.00;46683.84;4896937;29;20040;-74
2023/05/13 05:00:26;;;;;;;17.90;12.83;;;;;;;-145.18;100.00;46679.94;4931608;29;20120;-74
2023/05/13 05:02:51;;;;;;;19.10;12.80;;;;;;;-145.18;100.00;46681.88;4934136;29;20054;-74
2023/05/13 05:05:16;;;;;;;17.40;12.87;;;;;;;-145.18;100.00;46689.69;4934907;29;20047;-74
2023/05/13 05:07:42;;;;;;;20.30;12.53;;;;;;;-145.18;100.00;46679.94;4931583;29;20126;-74
2023/05/13 05:10:08;;;;;;;18.33;13.03;;;;;;;-145.18;100.00;46685.78;4929863;29;20133;-75
2023/05/13 05:12:33;;;;;;;19.53;13.27;;;;;;;-145.18;100.00;46677.97;4934028;29;20524;-75
2023/05/13 05:14:59;;;;;;;16.93;12.97;;;;;;;-145.18;100.00;46679.94;4924113;29;20076;-74
2023/05/13 05:17:25;;;;;;;19.60;13.10;;;;;;;-145.18;100.00;46685.78;4914469;29;20111;-75
2023/05/13 05:19:50;;;;;;;21.20;12.50;;;;;;;-145.18;100.00;46679.94;4922995;29;20124;-75
2023/05/13 05:22:16;;;;;;;16.97;12.97;;;;;;;-145.18;100.00;46681.88;4917567;29;20056;-74
2023/05/13 05:24:41;;;;;;;21.97;13.67;;;;;;;-145.18;100.00;46681.88;4918473;29;20127;-75
2023/05/13 05:27:06;;;;;;;18.83;12.73;;;;;;;-145.18;100.00;46689.69;4907796;29;20064;-74
2023/05/13 05:29:32;;;;;;;22.03;13.53;;;;;;;-145.18;100.00;46683.84;4914542;29;20938;-74
2023/05/13 05:31:57;;;;;;;18.20;13.03;;;;;;;-145.18;100.00;46685.78;4933826;29;20035;-75
2023/05/13 05:34:22;;;;;;;18.67;12.60;;;;;;;-145.18;100.00;46679.94;4933571;29;20071;-75
2023/05/13 05:36:48;;;;;;;19.17;12.97;;;;;;;-145.18;100.00;46677.97;4921896;29;20051;-74
2023/05/13 05:39:13;;;;;;;20.90;13.17;;;;;;;-145.18;100.00;46683.84;4922353;29;20042;-75
2023/05/13 05:41:38;;;;;;;16.40;12.33;;;;;;;-145.18;100.00;46683.84;4933684;29;20036;-74
2023/05/13 05:44:04;;;;;;;21.07;12.53;;;;;;;-145.18;100.00;46679.94;4933352;29;20032;-75
2023/05/13 05:46:30;;;;;;;14.17;12.03;;;;;;;-145.18;100.00;46683.84;4929139;29;20693;-75
2023/05/13 05:48:55;;;;;;;17.57;11.87;;;;;;;-145.18;100.00;46685.78;4912996;29;20412;-75
2023/05/13 05:51:20;;;;;;;18.00;11.73;;;;;;;-145.18;100.00;46681.88;4933123;29;20059;-76
2023/05/13 05:53:46;;;;;;;14.87;11.20;;;;;;;-145.18;100.00;46687.75;4933652;29;20039;-75
2023/05/13 05:56:11;;;;;;;18.67;11.17;;;;;;;-145.18;100.00;46687.75;4933359;29;20043;-75
2023/05/13 05:58:36;;;;;;;16.87;11.70;;;;;;;-145.18;100.00;46689.69;4926350;29;20067;-75
2023/05/13 06:01:02;;;;;;;15.83;10.57;;;;;;;-145.18;100.00;46687.75;4897115;29;20252;-75
2023/05/13 06:03:27;;;;;;;18.60;11.43;;;;;;;-145.18;100.00;46687.75;4914195;29;20089;-75
2023/05/13 06:05:53;;;;;;;14.37;10.17;;;;;;;-145.18;100.00;46689.69;4914361;29;20046;-75
2023/05/13 06:08:19;;;;;;;18.50;10.07;;;;;;;-145.18;100.00;46683.84;4917534;29;20521;-75
2023/05/13 06:10:44;;;;;;;17.30;10.50;;;;;;;-145.18;100.00;46679.94;4933209;29;20036;-75
2023/05/13 06:13:10;;;;;;;15.17;10.67;;;;;;;-145.18;100.00;46660.41;4933175;29;20032;-75
2023/05/13 06:15:37;;;;;;;16.33;10.40;;;;;;;-145.18;100.00;46638.91;4933327;29;20031;-75
2023/05/13 06:18:04;;;;;;;15.53;11.13;;;;;;;-145.18;100.00;46609.59;4912651;29;20031;-75
2023/05/13 06:20:30;;;;;;;14.80;9.70;;;;;;;-145.18;100.00;46603.75;4920547;29;20024;-76
2023/05/13 06:22:55;;;;;;;12.93;9.37;;;;;;;-145.18;100.00;46564.69;4928206;29;20123;-75
2023/05/13 06:25:21;;;;;;;13.57;9.23;;;;;;;-145.18;100.00;46560.78;4911373;29;20036;-75
2023/05/13 06:27:46;;;;;;;11.47;9.00;;;;;;;-145.18;100.00;46560.78;4897923;29;20055;-75
2023/05/13 06:30:11;;;;;;;13.13;8.63;;;;;;;-145.18;100.00;46568.59;4897007;29;20071;-75
2023/05/13 06:32:37;;;;;;;14.07;9.00;;;;;;;-145.18;100.00;46564.69;4913683;29;20064;-75
2023/05/13 06:35:02;;;;;;;16.17;8.37;;;;;;;-145.18;100.00;46572.50;4885845;29;20253;-75
2023/05/13 06:37:28;;;;;;;13.53;8.90;;;;;;;-145.18;100.00;46582.25;4914618;29;20038;-75
2023/05/13 06:39:53;;;;;;;16.93;8.53;;;;;;;-145.18;100.00;46586.16;4913343;29;20073;-76
2023/05/13 06:42:19;;;;;;;14.33;8.77;;;;;;;-145.18;100.00;46576.41;4913659;29;20032;-76
2023/05/13 06:44:44;;;;;;;11.67;9.30;;;;;;;-145.18;100.00;46584.22;4913852;29;20553;-77
2023/05/13 06:47:14;;;;;;;14.23;9.17;;;;;;;-145.18;100.00;46588.13;4912928;29;20040;-76
2023/05/13 06:49:39;;;;;;;10.23;8.03;;;;;;;-145.18;100.00;46580.31;4913590;29;20095;-76
2023/05/13 06:52:05;;;;;;;16.27;8.67;;;;;;;-145.18;100.00;46593.97;4913703;29;20442;-76
2023/05/13 06:54:31;;;;;;;14.87;8.50;;;;;;;-145.18;100.00;46588.13;4917674;29;20032;-76
2023/05/13 06:56:56;;;;;;;16.87;8.70;;;;;;;-145.18;100.00;46584.22;4927723;29;20040;-76
2023/05/13 06:59:22;;;;;;;11.63;8.13;;;;;;;-145.18;100.00;46595.94;4924571;29;20036;-76
2023/05/13 07:01:47;;;;;;;13.13;9.10;;;;;;;-145.18;100.00;46584.22;4915391;29;20031;-76
2023/05/13 07:04:12;;;;;;;11.40;8.30;;;;;;;-145.18;100.00;46590.06;4919235;29;20060;-76
2023/05/13 07:06:38;;;;;;;15.93;8.97;;;;;;;-145.18;100.00;46593.97;4913736;29;20029;-76
2023/05/13 07:09:03;;;;;;;12.73;9.30;;;;;;;-145.18;100.00;46590.06;4908603;29;20052;-76
2023/05/13 07:11:29;;;;;;;12.03;8.30;;;;;;;-145.18;100.00;46590.06;4906260;29;20051;-75
2023/05/13 07:13:54;;;;;;;12.60;8.50;;;;;;;-145.18;100.00;46597.88;4911956;29;20438;-75
2023/05/13 07:16:20;;;;;;;14.20;8.23;;;;;;;-145.18;100.00;46603.75;4907343;29;20128;-75
2023/05/13 07:18:45;;;;;;;12.60;8.60;;;;;;;-145.18;100.00;46601.78;4901344;29;20111;-75
2023/05/13 07:21:13;;;;;;;11.70;8.47;;;;;;;-145.18;100.00;46615.47;4902437;29;20038;-76
2023/05/13 07:23:38;;;;;;;8.93;7.60;;;;;;;-145.18;100.00;46619.38;4922459;29;20031;-75
2023/05/13 07:26:04;;;;;;;12.03;9.03;;;;;;;-145.18;100.00;46621.31;4912484;29;20552;-75
2023/05/13 07:28:29;;;;;;;12.97;8.07;;;;;;;-145.18;100.00;46592.03;4912235;29;20036;-75
2023/05/13 07:30:55;;;;;;;15.33;8.60;;;;;;;-145.18;100.00;46611.56;4912480;29;20067;-75
2023/05/13 07:33:20;;;;;;;11.60;8.30;;;;;;;-145.18;100.00;46590.06;4912254;29;20036;-75
2023/05/13 07:35:46;;;;;;;12.47;8.70;;;;;;;-145.18;100.00;46603.75;4912641;29;20044;-76
2023/05/13 07:38:11;;;;;;;11.60;8.17;;;;;;;-145.18;100.00;46619.38;4912317;29;20828;-75
2023/05/13 07:40:37;;;;;;;11.83;8.53;;;;;;;-145.18;100.00;46623.28;4912271;29;20044;-75
2023/05/13 07:43:02;;;;;;;14.07;8.70;;;;;;;-145.18;100.00;46617.41;4925578;29;20405;-76
2023/05/13 07:45:28;;;;;;;9.97;7.87;;;;;;;-145.18;100.00;46635.00;4913315;29;20497;-75
2023/05/13 07:47:53;;;;;;;12.70;8.87;;;;;;;-145.18;100.00;46633.06;4915108;29;20082;-75
2023/05/13 07:50:19;;;;;;;21.23;8.73;;;;;;;-145.18;100.00;46629.13;4915388;29;20067;-76
2023/05/13 07:52:47;;;;;;;12.57;8.27;;;;;;;-145.18;100.00;46640.88;4916555;29;20478;-75
2023/05/13 07:55:14;;;;;;;10.50;8.23;;;;;;;-145.18;100.00;46652.59;4929481;29;20040;-76
2023/05/13 07:57:39;;;;;;;14.93;8.80;;;;;;;-145.18;100.00;46652.59;4935216;29;20114;-75
2023/05/13 08:00:05;;;;;;;12.43;8.27;;;;;;;-145.18;100.00;46650.63;4918723;29;20119;-75
2023/05/13 08:02:33;;;;;;;12.17;7.87;;;;;;;-145.18;100.00;46625.22;4915905;29;20087;-75
2023/05/13 08:04:59;;;;;;;11.07;7.60;;;;;;;-145.18;100.00;46633.06;4916069;29;20043;-75
2023/05/13 08:07:24;;;;;;;13.93;8.40;;;;;;;-145.18;100.00;46654.53;4916348;29;20497;-75
2023/05/13 08:09:50;;;;;;;14.90;9.53;;;;;;;-145.18;100.00;46658.44;4915833;29;20036;-76
2023/05/13 08:12:15;;;;;;;12.17;8.27;;;;;;;-145.18;100.00;46656.50;4916206;29;20043;-75
2023/05/13 08:14:40;;;;;;;10.90;8.23;;;;;;;-145.18;100.00;46677.97;4916119;29;20103;-75
2023/05/13 08:17:06;;;;;;;12.27;8.00;;;;;;;-145.18;100.00;46635.00;4915590;29;20054;-76
2023/05/13 08:19:32;;;;;;;10.77;7.47;;;;;;;-145.18;100.00;46652.59;4916176;29;20047;-76
2023/05/13 08:21:57;;;;;;;13.47;7.70;;;;;;;-145.18;100.00;46670.16;4915522;29;20036;-75
2023/05/13 08:24:22;;;;;;;13.93;7.87;;;;;;;-145.18;100.00;46687.75;4915673;29;20068;-76
2023/05/13 08:26:48;;;;;;;9.93;7.87;;;;;;;-145.18;100.00;46668.22;4915828;29;20088;-75
2023/05/13 08:29:14;;;;;;;8.77;6.80;;;;;;;-145.18;100.00;46701.41;4915689;29;20103;-77
2023/05/13 08:31:40;;;;;;;10.23;7.03;;;;;;;-145.18;100.00;46699.47;4922446;29;20555;-76
2023/05/13 08:34:06;;;;;;;10.23;7.47;;;;;;;-145.18;100.00;46687.75;4925250;29;20442;-76
2023/05/13 08:36:31;;;;;;;13.20;7.17;;;;;;;-145.18;100.00;46722.91;4916147;29;20067;-76
2023/05/13 08:38:56;;;;;;;9.27;7.17;;;;;;;-145.18;100.00;46834.25;4914932;29;20056;-75
2023/05/13 08:41:22;;;;;;;11.33;7.53;;;;;;;-145.18;100.00;46799.09;4915809;29;20397;-76
2023/05/13 08:43:50;;;;;;;13.90;7.20;;;;;;;-145.18;100.00;46781.50;4915491;29;20036;-76
2023/05/13 08:46:17;;;;;;;12.60;6.60;;;;;;;-145.18;100.00;46742.44;4915482;29;20032;-76
2023/05/13 08:48:43;;;;;;;8.43;7.13;;;;;;;-145.18;100.00;46978.81;4915565;29;20028;-76
2023/05/13 08:51:09;;;;;;;11.23;7.00;;;;;;;-145.18;100.00;47004.19;4915520;29;20028;-76
2023/05/13 08:53:38;;;;;;;12.13;7.00;;;;;;;-145.18;100.00;47308.97;4919776;29;20118;-77
2023/05/13 08:56:05;;;;;;;9.70;7.63;;;;;;;-145.18;100.00;47256.22;4914895;29;20617;-77
2023/05/13 08:58:30;;;;;;;10.83;7.30;;;;;;;-145.18;100.00;46873.31;4950455;23;20514;-77
2023/05/13 09:00:57;;;;;;;7.97;6.47;;;;;;;-145.18;100.00;47318.72;4945306;29;20047;-77
2023/05/13 09:03:23;;;;;;;9.73;6.83;;;;;;;-145.18;100.00;47289.41;4930508;29;20067;-77
2023/05/13 09:05:48;;;;;;;8.70;6.80;;;;;;;-145.18;100.00;47236.66;4922871;29;20042;-78
2023/05/13 09:08:13;;;;;;;10.57;6.13;;;;;;;-145.18;100.00;47250.34;4930708;29;20039;-77
2023/05/13 09:10:39;;;;;;;11.97;6.90;;;;;;;-145.18;100.00;47264.03;4931462;29;20775;-78
2023/05/13 09:13:05;;;;;;;10.37;7.17;;;;;;;-145.18;100.00;47226.91;4931342;29;20114;-78
2023/05/13 09:15:30;;;;;;;8.87;6.50;;;;;;;-145.18;100.00;47211.28;4913877;29;20027;-78
2023/05/13 09:17:59;;;;;;;7.83;5.40;;;;;;;-145.18;100.00;47197.59;4932531;29;20039;-77
2023/05/13 09:20:25;;;;;;;8.87;7.10;;;;;;;-145.18;100.00;47185.88;4933814;29;20486;-78
2023/05/13 09:22:55;;;;;;;8.07;6.00;;;;;;;-145.18;100.00;47168.28;4927666;29;20031;-76
2023/05/13 09:25:22;;;;;;;11.50;6.60;;;;;;;-145.18;100.00;47168.28;4932902;29;20504;-76
2023/05/13 09:27:52;;;;;;;11.67;6.67;;;;;;;-145.18;100.00;47187.84;4933475;29;20040;-77
2023/05/13 09:30:19;;;;;;;10.60;6.60;;;;;;;-145.18;100.00;47183.94;4933719;29;20027;-77
2023/05/13 09:33:08;;;;;;;10.30;7.40;;;;;;;-145.18;100.00;47187.84;4933604;29;20040;-78
2023/05/13 09:35:36;;;;;;;9.47;5.90;;;;;;;-145.18;100.00;47180.03;4932359;29;20040;-78
2023/05/13 09:38:17;;;;;;;8.17;6.17;;;;;;;-145.18;100.00;47170.25;4936854;29;20068;-79
2023/05/13 09:41:09;;;;;;;8.57;6.37;;;;;;;-145.18;100.00;47168.28;4939825;29;20034;-79
2023/05/13 09:43:37;;;;;;;9.60;6.13;;;;;;;-145.18;100.00;47160.47;4936417;29;20425;-79
2023/05/13 09:46:04;;;;;;;6.87;5.53;;;;;;;-145.18;100.00;47174.16;4941197;29;20031;-79
2023/05/13 09:48:32;;;;;;;9.03;6.27;;;;;;;-145.18;100.00;47146.81;4938918;29;20592;-80
2023/05/13 09:50:58;;;;;;;9.00;6.03;;;;;;;-145.18;100.00;47154.63;4942206;29;20031;-80
2023/05/13 09:53:24;;;;;;;9.63;6.10;;;;;;;-145.18;100.00;47137.03;4939969;29;20031;-80
2023/05/13 09:55:53;;;;;;;11.53;6.60;;;;;;;-145.18;100.00;47121.41;4924027;29;20520;-80
2023/05/13 09:58:19;;;;;;;7.67;5.80;;;;;;;-145.18;100.00;47133.13;4940150;29;20043;-81
2023/05/13 10:00:46;;;;;;;8.63;5.70;;;;;;;-145.18;100.00;47137.03;4940718;29;20040;-79
2023/05/13 10:03:12;;;;;;;8.87;6.63;;;;;;;-145.18;100.00;47121.41;4940197;29;20043;-81
2023/05/13 10:05:38;;;;;;;9.30;5.83;;;;;;;-145.18;100.00;47133.13;4935353;29;20428;-82
2023/05/13 10:08:07;;;;;;;8.83;5.90;;;;;;;-145.18;100.00;47131.19;4932130;29;20039;-81
2023/05/13 10:10:34;;;;;;;12.77;6.23;;;;;;;-145.18;100.00;47131.19;4931232;29;20507;-81
2023/05/13 10:13:11;;;;;;;7.13;5.90;;;;;;;-145.18;100.00;47125.31;4924226;29;20039;-81
2023/05/13 10:15:57;;;;;;;7.87;5.20;;;;;;;-145.18;100.00;47109.69;4932371;29;20048;-82
2023/05/13 10:18:23;;;;;;;7.80;5.43;;;;;;;-145.18;100.00;47113.59;4932423;29;20148;-81
2023/05/13 10:20:51;;;;;;;6.23;4.93;;;;;;;-145.18;100.00;47121.41;4932951;29;20057;-81
2023/05/13 10:23:18;;;;;;;10.30;5.40;;;;;;;-145.18;100.00;47103.81;4932703;29;20094;-80
2023/05/13 10:25:46;;;;;;;7.33;5.17;;;;;;;-145.18;100.00;47107.72;4932425;29;20043;-81
2023/05/13 10:28:13;;;;;;;7.57;5.23;;;;;;;-145.18;100.00;47105.78;4923811;29;20503;-79
2023/05/13 10:30:40;;;;;;;7.20;5.30;;;;;;;-145.18;100.00;47113.59;4917750;29;20032;-79
2023/05/13 10:33:06;;;;;;;8.57;5.97;;;;;;;-145.18;100.00;47101.88;4919080;29;20039;-80
2023/05/13 10:35:35;;;;;;;7.07;5.07;;;;;;;-145.18;100.00;47090.16;4927867;29;20036;-79
2023/05/13 10:38:14;;;;;;;8.17;4.63;;;;;;;-145.18;100.00;47096.00;4933265;29;20035;-79
2023/05/13 10:41:21;;;;;;;6.17;4.33;;;;;;;-145.18;100.00;47082.34;4933055;29;20024;-79
2023/05/13 10:43:58;;;;;;;7.53;4.43;;;;;;;-145.18;100.00;47092.09;4854695;29;20285;-78
2023/05/13 10:46:23;;;;;;;6.93;5.37;;;;;;;-145.18;100.00;47084.28;4925105;29;20044;-78
2023/05/13 10:48:53;;;;;;;8.17;5.67;;;;;;;-145.18;100.00;47074.53;4919033;29;20032;-78
2023/05/13 10:51:22;;;;;;;6.97;4.73;;;;;;;-145.18;100.00;47074.53;4921659;29;20547;-78
2023/05/13 10:53:48;;;;;;;6.57;5.03;;;;;;;-145.18;100.00;47074.53;4930616;29;20031;-78
2023/05/13 10:56:18;;;;;;;5.40;4.40;;;;;;;-145.18;100.00;47058.91;4921083;29;20035;-78
2023/05/13 10:58:57;;;;;;;5.47;4.23;;;;;;;-145.18;100.00;47066.72;4926482;29;20276;-77
2023/05/13 11:01:41;;;;;;;7.93;4.93;;;;;;;-145.18;100.00;47060.84;4930401;29;20032;-77
2023/05/13 11:04:11;;;;;;;10.13;5.53;;;;;;;-145.18;100.00;47060.84;4930409;29;20024;-78
2023/05/13 11:06:39;;;;;;;7.73;5.87;;;;;;;-145.18;100.00;47068.66;4913680;29;20091;-77